sensor_id;sensor_type;location;lat;lon;timestamp;P1;durP1;ratioP1;P2;durP2;ratioP2
68310;SDS011;55157;51.036;17.058;2022-10-16T00:01:55;12.15;;;7.55;;
68310;SDS011;55157;51.036;17.058;2022-10-16T00:04:20;10.38;;;8.20;;
68310;SDS011;55157;51.036;17.058;2022-10-16T00:06:45;17.08;;;11.18;;
68310;SDS011;55157;51.036;17.058;2022-10-16T00:09:11;13.18;;;7.90;;
68310;SDS011;55157;51.036;17.058;2022-10-16T00:11:38;15.75;;;8.73;;
68310;SDS011;55157;51.036;17.058;2022-10-16T00:14:04;12.43;;;8.25;;
68310;SDS011;55157;51.036;17.058;2022-10-16T00:16:30;13.73;;;8.38;;
68310;SDS011;55157;51.036;17.058;2022-10-16T00:18:57;14.15;;;8.75;;
68310;SDS011;55157;51.036;17.058;2022-10-16T00:21:23;13.95;;;7.68;;
68310;SDS011;55157;51.036;17.058;2022-10-16T00:23:49;17.20;;;8.68;;
68310;SDS011;55157;51.036;17.058;2022-10-16T00:26:16;14.98;;;8.52;;
68310;SDS011;55157;51.036;17.058;2022-10-16T00:28:41;17.08;;;8.52;;
68310;SDS011;55157;51.036;17.058;2022-10-16T00:31:07;12.65;;;8.20;;
68310;SDS011;55157;51.036;17.058;2022-10-16T00:33:33;13.20;;;8.52;;
68310;SDS011;55157;51.036;17.058;2022-10-16T00:36:00;12.63;;;7.30;;
68310;SDS011;55157;51.036;17.058;2022-10-16T00:38:25;9.10;;;6.38;;
68310;SDS011;55157;51.036;17.058;2022-10-16T00:40:50;11.43;;;6.97;;
68310;SDS011;55157;51.036;17.058;2022-10-16T00:45:56;10.38;;;6.78;;
68310;SDS011;55157;51.036;17.058;2022-10-16T00:48:21;9.70;;;6.38;;
68310;SDS011;55157;51.036;17.058;2022-10-16T00:50:46;11.10;;;6.82;;
68310;SDS011;55157;51.036;17.058;2022-10-16T00:53:13;16.50;;;6.95;;
68310;SDS011;55157;51.036;17.058;2022-10-16T00:55:39;7.88;;;5.57;;
68310;SDS011;55157;51.036;17.058;2022-10-16T00:58:04;9.48;;;5.70;;
68310;SDS011;55157;51.036;17.058;2022-10-16T01:00:30;8.13;;;6.32;;
68310;SDS011;55157;51.036;17.058;2022-10-16T01:02:56;14.07;;;6.95;;
68310;SDS011;55157;51.036;17.058;2022-10-16T01:05:22;9.60;;;5.28;;
68310;SDS011;55157;51.036;17.058;2022-10-16T01:07:49;11.70;;;6.25;;
68310;SDS011;55157;51.036;17.058;2022-10-16T01:10:20;11.05;;;6.57;;
68310;SDS011;55157;51.036;17.058;2022-10-16T01:12:49;16.05;;;7.57;;
68310;SDS011;55157;51.036;17.058;2022-10-16T01:15:17;16.42;;;6.28;;
68310;SDS011;55157;51.036;17.058;2022-10-16T01:17:45;9.77;;;6.53;;
68310;SDS011;55157;51.036;17.058;2022-10-16T01:20:12;7.78;;;6.10;;
68310;SDS011;55157;51.036;17.058;2022-10-16T01:22:43;13.48;;;6.47;;
68310;SDS011;55157;51.036;17.058;2022-10-16T01:25:12;6.32;;;5.68;;
68310;SDS011;55157;51.036;17.058;2022-10-16T01:27:41;13.23;;;7.43;;
68310;SDS011;55157;51.036;17.058;2022-10-16T01:30:09;13.23;;;6.35;;
68310;SDS011;55157;51.036;17.058;2022-10-16T01:32:36;9.43;;;6.28;;
68310;SDS011;55157;51.036;17.058;2022-10-16T01:35:02;9.93;;;6.63;;
68310;SDS011;55157;51.036;17.058;2022-10-16T01:37:29;9.45;;;6.50;;
68310;SDS011;55157;51.036;17.058;2022-10-16T01:39:58;14.30;;;5.65;;
68310;SDS011;55157;51.036;17.058;2022-10-16T01:42:24;11.32;;;7.63;;
68310;SDS011;55157;51.036;17.058;2022-10-16T01:44:53;14.15;;;7.50;;
68310;SDS011;55157;51.036;17.058;2022-10-16T01:47:20;14.45;;;9.77;;
68310;SDS011;55157;51.036;17.058;2022-10-16T01:49:47;13.40;;;7.93;;
68310;SDS011;55157;51.036;17.058;2022-10-16T01:52:13;19.13;;;8.60;;
68310;SDS011;55157;51.036;17.058;2022-10-16T01:54:40;11.23;;;7.90;;
68310;SDS011;55157;51.036;17.058;2022-10-16T01:57:06;15.60;;;8.90;;
68310;SDS011;55157;51.036;17.058;2022-10-16T01:59:32;12.25;;;8.18;;
68310;SDS011;55157;51.036;17.058;2022-10-16T02:02:04;10.85;;;9.23;;
68310;SDS011;55157;51.036;17.058;2022-10-16T02:04:31;13.15;;;9.60;;
68310;SDS011;55157;51.036;17.058;2022-10-16T02:06:57;12.57;;;8.45;;
68310;SDS011;55157;51.036;17.058;2022-10-16T02:09:22;14.43;;;9.35;;
68310;SDS011;55157;51.036;17.058;2022-10-16T02:11:47;12.63;;;9.43;;
68310;SDS011;55157;51.036;17.058;2022-10-16T02:14:14;11.30;;;9.85;;
68310;SDS011;55157;51.036;17.058;2022-10-16T02:16:40;15.85;;;10.73;;
68310;SDS011;55157;51.036;17.058;2022-10-16T02:19:07;14.85;;;10.52;;
68310;SDS011;55157;51.036;17.058;2022-10-16T02:21:34;17.25;;;11.10;;
68310;SDS011;55157;51.036;17.058;2022-10-16T02:24:02;16.38;;;10.02;;
68310;SDS011;55157;51.036;17.058;2022-10-16T02:26:28;14.63;;;10.07;;
68310;SDS011;55157;51.036;17.058;2022-10-16T02:28:57;14.38;;;10.55;;
68310;SDS011;55157;51.036;17.058;2022-10-16T02:31:25;19.88;;;10.93;;
68310;SDS011;55157;51.036;17.058;2022-10-16T02:33:52;20.63;;;10.38;;
68310;SDS011;55157;51.036;17.058;2022-10-16T02:36:19;17.05;;;11.15;;
68310;SDS011;55157;51.036;17.058;2022-10-16T02:38:44;20.67;;;10.85;;
68310;SDS011;55157;51.036;17.058;2022-10-16T02:41:10;10.40;;;8.50;;
68310;SDS011;55157;51.036;17.058;2022-10-16T02:43:35;12.90;;;9.18;;
68310;SDS011;55157;51.036;17.058;2022-10-16T02:46:00;13.27;;;8.95;;
68310;SDS011;55157;51.036;17.058;2022-10-16T02:48:26;13.93;;;8.38;;
68310;SDS011;55157;51.036;17.058;2022-10-16T02:50:51;10.38;;;8.18;;
68310;SDS011;55157;51.036;17.058;2022-10-16T02:53:18;15.95;;;9.30;;
68310;SDS011;55157;51.036;17.058;2022-10-16T02:55:43;25.73;;;12.30;;
68310;SDS011;55157;51.036;17.058;2022-10-16T02:58:09;17.77;;;10.77;;
68310;SDS011;55157;51.036;17.058;2022-10-16T03:00:34;15.85;;;9.55;;
68310;SDS011;55157;51.036;17.058;2022-10-16T03:02:59;16.63;;;10.20;;
68310;SDS011;55157;51.036;17.058;2022-10-16T03:05:24;15.63;;;8.27;;
68310;SDS011;55157;51.036;17.058;2022-10-16T03:07:50;16.08;;;9.43;;
68310;SDS011;55157;51.036;17.058;2022-10-16T03:10:17;14.85;;;9.23;;
68310;SDS011;55157;51.036;17.058;2022-10-16T03:12:42;15.88;;;9.25;;
68310;SDS011;55157;51.036;17.058;2022-10-16T03:15:07;14.68;;;9.80;;
68310;SDS011;55157;51.036;17.058;2022-10-16T03:17:33;14.48;;;8.25;;
68310;SDS011;55157;51.036;17.058;2022-10-16T03:19:58;12.88;;;10.05;;
68310;SDS011;55157;51.036;17.058;2022-10-16T03:22:23;10.40;;;9.10;;
68310;SDS011;55157;51.036;17.058;2022-10-16T03:24:49;11.85;;;9.85;;
68310;SDS011;55157;51.036;17.058;2022-10-16T03:27:15;12.15;;;8.52;;
68310;SDS011;55157;51.036;17.058;2022-10-16T03:29:41;12.13;;;8.73;;
68310;SDS011;55157;51.036;17.058;2022-10-16T03:32:06;13.98;;;10.18;;
68310;SDS011;55157;51.036;17.058;2022-10-16T03:34:31;14.13;;;10.55;;
68310;SDS011;55157;51.036;17.058;2022-10-16T03:36:57;15.45;;;11.40;;
68310;SDS011;55157;51.036;17.058;2022-10-16T03:39:22;18.48;;;11.98;;
68310;SDS011;55157;51.036;17.058;2022-10-16T03:41:47;15.70;;;11.80;;
68310;SDS011;55157;51.036;17.058;2022-10-16T03:44:14;22.70;;;14.60;;
68310;SDS011;55157;51.036;17.058;2022-10-16T03:46:39;25.27;;;15.27;;
68310;SDS011;55157;51.036;17.058;2022-10-16T03:49:05;24.35;;;14.05;;
68310;SDS011;55157;51.036;17.058;2022-10-16T03:51:30;20.45;;;14.20;;
68310;SDS011;55157;51.036;17.058;2022-10-16T03:53:55;20.75;;;15.57;;
68310;SDS011;55157;51.036;17.058;2022-10-16T03:56:20;16.15;;;13.43;;
68310;SDS011;55157;51.036;17.058;2022-10-16T03:58:46;17.08;;;13.07;;
68310;SDS011;55157;51.036;17.058;2022-10-16T04:01:12;17.77;;;14.10;;
68310;SDS011;55157;51.036;17.058;2022-10-16T04:03:38;14.80;;;12.60;;
68310;SDS011;55157;51.036;17.058;2022-10-16T04:06:03;13.43;;;10.70;;
68310;SDS011;55157;51.036;17.058;2022-10-16T04:08:28;14.57;;;10.98;;
68310;SDS011;55157;51.036;17.058;2022-10-16T04:10:54;16.20;;;11.52;;
68310;SDS011;55157;51.036;17.058;2022-10-16T04:13:19;13.75;;;10.27;;
68310;SDS011;55157;51.036;17.058;2022-10-16T04:15:44;12.73;;;10.20;;
68310;SDS011;55157;51.036;17.058;2022-10-16T04:18:11;10.88;;;9.05;;
68310;SDS011;55157;51.036;17.058;2022-10-16T04:20:36;14.43;;;9.57;;
68310;SDS011;55157;51.036;17.058;2022-10-16T04:23:02;14.00;;;9.35;;
68310;SDS011;55157;51.036;17.058;2022-10-16T04:25:27;12.85;;;10.13;;
68310;SDS011;55157;51.036;17.058;2022-10-16T04:27:52;10.95;;;8.43;;
68310;SDS011;55157;51.036;17.058;2022-10-16T04:30:18;11.43;;;8.15;;
68310;SDS011;55157;51.036;17.058;2022-10-16T04:32:43;16.27;;;8.68;;
68310;SDS011;55157;51.036;17.058;2022-10-16T04:35:14;11.18;;;7.00;;
68310;SDS011;55157;51.036;17.058;2022-10-16T04:37:39;8.02;;;6.50;;
68310;SDS011;55157;51.036;17.058;2022-10-16T04:40:04;10.77;;;6.65;;
68310;SDS011;55157;51.036;17.058;2022-10-16T04:42:30;7.82;;;7.03;;
68310;SDS011;55157;51.036;17.058;2022-10-16T04:44:55;11.23;;;7.50;;
68310;SDS011;55157;51.036;17.058;2022-10-16T04:47:20;7.65;;;5.88;;
68310;SDS011;55157;51.036;17.058;2022-10-16T04:49:46;12.85;;;8.10;;
68310;SDS011;55157;51.036;17.058;2022-10-16T04:52:12;7.13;;;6.28;;
68310;SDS011;55157;51.036;17.058;2022-10-16T04:54:38;14.82;;;7.72;;
68310;SDS011;55157;51.036;17.058;2022-10-16T04:57:03;9.13;;;7.13;;
68310;SDS011;55157;51.036;17.058;2022-10-16T04:59:28;8.60;;;7.45;;
68310;SDS011;55157;51.036;17.058;2022-10-16T05:01:53;11.95;;;6.80;;
68310;SDS011;55157;51.036;17.058;2022-10-16T05:04:19;9.05;;;7.28;;
68310;SDS011;55157;51.036;17.058;2022-10-16T05:06:44;9.07;;;6.95;;
68310;SDS011;55157;51.036;17.058;2022-10-16T05:09:11;8.77;;;7.47;;
68310;SDS011;55157;51.036;17.058;2022-10-16T05:11:36;12.10;;;8.05;;
68310;SDS011;55157;51.036;17.058;2022-10-16T05:14:02;8.45;;;7.32;;
68310;SDS011;55157;51.036;17.058;2022-10-16T05:16:27;9.23;;;7.07;;
68310;SDS011;55157;51.036;17.058;2022-10-16T05:18:52;15.52;;;7.60;;
68310;SDS011;55157;51.036;17.058;2022-10-16T05:21:18;8.30;;;6.40;;
68310;SDS011;55157;51.036;17.058;2022-10-16T05:23:43;10.95;;;7.55;;
68310;SDS011;55157;51.036;17.058;2022-10-16T05:26:10;9.02;;;7.25;;
68310;SDS011;55157;51.036;17.058;2022-10-16T05:28:35;8.23;;;6.88;;
68310;SDS011;55157;51.036;17.058;2022-10-16T05:31:03;13.23;;;7.32;;
68310;SDS011;55157;51.036;17.058;2022-10-16T05:33:29;8.05;;;6.75;;
68310;SDS011;55157;51.036;17.058;2022-10-16T05:35:54;15.82;;;11.15;;
68310;SDS011;55157;51.036;17.058;2022-10-16T05:38:19;31.48;;;20.52;;
68310;SDS011;55157;51.036;17.058;2022-10-16T05:40:50;31.08;;;20.48;;
68310;SDS011;55157;51.036;17.058;2022-10-16T05:43:16;24.75;;;16.58;;
68310;SDS011;55157;51.036;17.058;2022-10-16T05:45:42;19.20;;;13.85;;
68310;SDS011;55157;51.036;17.058;2022-10-16T05:48:07;17.75;;;12.35;;
68310;SDS011;55157;51.036;17.058;2022-10-16T05:50:32;15.98;;;11.52;;
68310;SDS011;55157;51.036;17.058;2022-10-16T05:52:58;10.70;;;8.88;;
68310;SDS011;55157;51.036;17.058;2022-10-16T05:55:23;16.83;;;8.15;;
68310;SDS011;55157;51.036;17.058;2022-10-16T05:57:48;13.80;;;7.88;;
68310;SDS011;55157;51.036;17.058;2022-10-16T06:00:15;8.80;;;7.45;;
68310;SDS011;55157;51.036;17.058;2022-10-16T06:02:40;13.80;;;8.57;;
68310;SDS011;55157;51.036;17.058;2022-10-16T06:05:06;11.20;;;7.78;;
68310;SDS011;55157;51.036;17.058;2022-10-16T06:07:33;9.77;;;7.53;;
68310;SDS011;55157;51.036;17.058;2022-10-16T06:09:59;9.60;;;7.22;;
68310;SDS011;55157;51.036;17.058;2022-10-16T06:12:24;9.27;;;7.53;;
68310;SDS011;55157;51.036;17.058;2022-10-16T06:14:49;8.77;;;7.57;;
68310;SDS011;55157;51.036;17.058;2022-10-16T06:17:16;9.55;;;7.57;;
68310;SDS011;55157;51.036;17.058;2022-10-16T06:19:41;8.52;;;7.55;;
68310;SDS011;55157;51.036;17.058;2022-10-16T06:22:07;9.95;;;6.82;;
68310;SDS011;55157;51.036;17.058;2022-10-16T06:24:32;8.90;;;7.03;;
68310;SDS011;55157;51.036;17.058;2022-10-16T06:26:57;9.80;;;6.45;;
68310;SDS011;55157;51.036;17.058;2022-10-16T06:29:22;8.25;;;6.68;;
68310;SDS011;55157;51.036;17.058;2022-10-16T06:31:48;9.65;;;7.10;;
68310;SDS011;55157;51.036;17.058;2022-10-16T06:34:15;8.80;;;6.35;;
68310;SDS011;55157;51.036;17.058;2022-10-16T06:36:40;8.20;;;6.28;;
68310;SDS011;55157;51.036;17.058;2022-10-16T06:39:05;10.32;;;6.75;;
68310;SDS011;55157;51.036;17.058;2022-10-16T06:41:31;12.57;;;6.53;;
68310;SDS011;55157;51.036;17.058;2022-10-16T06:43:56;8.80;;;6.47;;
68310;SDS011;55157;51.036;17.058;2022-10-16T06:46:22;6.82;;;6.00;;
68310;SDS011;55157;51.036;17.058;2022-10-16T06:48:48;9.68;;;6.55;;
68310;SDS011;55157;51.036;17.058;2022-10-16T06:51:15;8.57;;;6.15;;
68310;SDS011;55157;51.036;17.058;2022-10-16T06:53:41;8.63;;;5.65;;
68310;SDS011;55157;51.036;17.058;2022-10-16T06:56:07;10.02;;;6.57;;
68310;SDS011;55157;51.036;17.058;2022-10-16T06:58:32;7.65;;;5.35;;
68310;SDS011;55157;51.036;17.058;2022-10-16T07:00:58;7.15;;;5.93;;
68310;SDS011;55157;51.036;17.058;2022-10-16T07:03:23;7.43;;;6.00;;
68310;SDS011;55157;51.036;17.058;2022-10-16T07:05:48;6.13;;;5.25;;
68310;SDS011;55157;51.036;17.058;2022-10-16T07:08:15;6.55;;;5.65;;
68310;SDS011;55157;51.036;17.058;2022-10-16T07:10:40;6.93;;;5.57;;
68310;SDS011;55157;51.036;17.058;2022-10-16T07:13:05;7.03;;;6.03;;
68310;SDS011;55157;51.036;17.058;2022-10-16T07:15:31;6.47;;;5.22;;
68310;SDS011;55157;51.036;17.058;2022-10-16T07:17:56;7.32;;;5.60;;
68310;SDS011;55157;51.036;17.058;2022-10-16T07:20:22;6.05;;;5.03;;
68310;SDS011;55157;51.036;17.058;2022-10-16T07:22:47;7.63;;;5.45;;
68310;SDS011;55157;51.036;17.058;2022-10-16T07:25:14;8.68;;;4.93;;
68310;SDS011;55157;51.036;17.058;2022-10-16T07:27:39;5.25;;;4.47;;
68310;SDS011;55157;51.036;17.058;2022-10-16T07:30:05;4.63;;;4.22;;
68310;SDS011;55157;51.036;17.058;2022-10-16T07:32:30;7.35;;;4.07;;
68310;SDS011;55157;51.036;17.058;2022-10-16T07:34:56;4.22;;;3.83;;
68310;SDS011;55157;51.036;17.058;2022-10-16T07:37:21;11.70;;;4.70;;
68310;SDS011;55157;51.036;17.058;2022-10-16T07:39:46;4.45;;;3.70;;
68310;SDS011;55157;51.036;17.058;2022-10-16T07:42:13;5.07;;;3.83;;
68310;SDS011;55157;51.036;17.058;2022-10-16T07:44:39;5.35;;;3.80;;
68310;SDS011;55157;51.036;17.058;2022-10-16T07:47:04;5.03;;;3.42;;
68310;SDS011;55157;51.036;17.058;2022-10-16T07:49:29;7.50;;;5.13;;
68310;SDS011;55157;51.036;17.058;2022-10-16T07:51:54;4.53;;;3.70;;
68310;SDS011;55157;51.036;17.058;2022-10-16T07:54:20;5.63;;;4.13;;
68310;SDS011;55157;51.036;17.058;2022-10-16T07:56:45;8.93;;;3.85;;
68310;SDS011;55157;51.036;17.058;2022-10-16T07:59:12;8.20;;;4.53;;
68310;SDS011;55157;51.036;17.058;2022-10-16T08:01:37;5.57;;;3.58;;
68310;SDS011;55157;51.036;17.058;2022-10-16T08:04:02;4.80;;;3.63;;
68310;SDS011;55157;51.036;17.058;2022-10-16T08:06:28;3.97;;;3.38;;
68310;SDS011;55157;51.036;17.058;2022-10-16T08:08:53;4.38;;;3.95;;
68310;SDS011;55157;51.036;17.058;2022-10-16T08:11:18;5.57;;;3.83;;
68310;SDS011;55157;51.036;17.058;2022-10-16T08:13:44;4.38;;;3.78;;
68310;SDS011;55157;51.036;17.058;2022-10-16T08:16:10;8.05;;;3.53;;
68310;SDS011;55157;51.036;17.058;2022-10-16T08:18:36;8.13;;;4.35;;
68310;SDS011;55157;51.036;17.058;2022-10-16T08:21:02;3.35;;;3.05;;
68310;SDS011;55157;51.036;17.058;2022-10-16T08:23:27;4.93;;;3.35;;
68310;SDS011;55157;51.036;17.058;2022-10-16T08:25:52;9.00;;;4.18;;
68310;SDS011;55157;51.036;17.058;2022-10-16T08:28:18;9.55;;;3.75;;
68310;SDS011;55157;51.036;17.058;2022-10-16T08:30:43;5.40;;;3.58;;
68310;SDS011;55157;51.036;17.058;2022-10-16T08:33:10;5.30;;;4.18;;
68310;SDS011;55157;51.036;17.058;2022-10-16T08:35:35;3.38;;;2.92;;
68310;SDS011;55157;51.036;17.058;2022-10-16T08:38:02;3.80;;;3.30;;
68310;SDS011;55157;51.036;17.058;2022-10-16T08:40:28;4.10;;;3.00;;
68310;SDS011;55157;51.036;17.058;2022-10-16T08:42:58;5.70;;;3.22;;
68310;SDS011;55157;51.036;17.058;2022-10-16T08:47:54;5.47;;;3.90;;
68310;SDS011;55157;51.036;17.058;2022-10-16T08:50:24;8.65;;;5.90;;
68310;SDS011;55157;51.036;17.058;2022-10-16T08:52:49;6.22;;;4.75;;
68310;SDS011;55157;51.036;17.058;2022-10-16T08:55:22;6.40;;;3.88;;
68310;SDS011;55157;51.036;17.058;2022-10-16T08:57:49;6.55;;;5.03;;
68310;SDS011;55157;51.036;17.058;2022-10-16T09:00:14;6.65;;;4.95;;
68310;SDS011;55157;51.036;17.058;2022-10-16T09:02:40;4.65;;;3.75;;
68310;SDS011;55157;51.036;17.058;2022-10-16T09:05:22;4.25;;;3.55;;
68310;SDS011;55157;51.036;17.058;2022-10-16T09:07:52;6.18;;;4.05;;
68310;SDS011;55157;51.036;17.058;2022-10-16T09:10:23;9.38;;;3.40;;
68310;SDS011;55157;51.036;17.058;2022-10-16T09:12:53;7.45;;;3.58;;
68310;SDS011;55157;51.036;17.058;2022-10-16T09:15:22;4.63;;;3.50;;
68310;SDS011;55157;51.036;17.058;2022-10-16T09:17:50;4.13;;;3.53;;
68310;SDS011;55157;51.036;17.058;2022-10-16T09:20:19;4.75;;;3.30;;
68310;SDS011;55157;51.036;17.058;2022-10-16T09:22:49;5.30;;;3.40;;
68310;SDS011;55157;51.036;17.058;2022-10-16T09:25:18;5.15;;;3.25;;
68310;SDS011;55157;51.036;17.058;2022-10-16T09:27:45;3.90;;;2.70;;
68310;SDS011;55157;51.036;17.058;2022-10-16T09:30:12;4.03;;;2.83;;
68310;SDS011;55157;51.036;17.058;2022-10-16T09:32:38;4.05;;;2.95;;
68310;SDS011;55157;51.036;17.058;2022-10-16T09:35:04;3.08;;;2.78;;
68310;SDS011;55157;51.036;17.058;2022-10-16T09:37:35;8.50;;;2.85;;
68310;SDS011;55157;51.036;17.058;2022-10-16T09:40:01;6.15;;;3.03;;
68310;SDS011;55157;51.036;17.058;2022-10-16T09:42:30;4.15;;;2.78;;
68310;SDS011;55157;51.036;17.058;2022-10-16T09:44:56;5.00;;;2.83;;
68310;SDS011;55157;51.036;17.058;2022-10-16T09:47:22;4.13;;;2.53;;
68310;SDS011;55157;51.036;17.058;2022-10-16T09:49:51;5.22;;;2.72;;
68310;SDS011;55157;51.036;17.058;2022-10-16T09:52:18;2.90;;;2.60;;
68310;SDS011;55157;51.036;17.058;2022-10-16T09:54:48;5.13;;;2.22;;
68310;SDS011;55157;51.036;17.058;2022-10-16T09:57:14;3.42;;;2.50;;
68310;SDS011;55157;51.036;17.058;2022-10-16T09:59:46;5.15;;;2.30;;
68310;SDS011;55157;51.036;17.058;2022-10-16T10:02:12;3.42;;;1.90;;
68310;SDS011;55157;51.036;17.058;2022-10-16T10:04:38;3.60;;;2.20;;
68310;SDS011;55157;51.036;17.058;2022-10-16T10:07:05;3.28;;;2.40;;
68310;SDS011;55157;51.036;17.058;2022-10-16T10:09:32;2.92;;;2.08;;
68310;SDS011;55157;51.036;17.058;2022-10-16T10:12:00;2.03;;;1.60;;
68310;SDS011;55157;51.036;17.058;2022-10-16T10:14:27;2.90;;;2.10;;
68310;SDS011;55157;51.036;17.058;2022-10-16T10:17:01;6.78;;;1.70;;
68310;SDS011;55157;51.036;17.058;2022-10-16T10:19:27;6.78;;;1.50;;
68310;SDS011;55157;51.036;17.058;2022-10-16T10:21:52;5.55;;;2.20;;
68310;SDS011;55157;51.036;17.058;2022-10-16T10:24:18;7.10;;;2.30;;
68310;SDS011;55157;51.036;17.058;2022-10-16T10:26:46;4.45;;;1.77;;
68310;SDS011;55157;51.036;17.058;2022-10-16T10:29:14;4.35;;;2.10;;
68310;SDS011;55157;51.036;17.058;2022-10-16T10:31:43;3.88;;;2.42;;
68310;SDS011;55157;51.036;17.058;2022-10-16T10:34:19;7.65;;;2.15;;
68310;SDS011;55157;51.036;17.058;2022-10-16T10:36:48;3.42;;;2.20;;
68310;SDS011;55157;51.036;17.058;2022-10-16T10:39:16;5.03;;;2.17;;
68310;SDS011;55157;51.036;17.058;2022-10-16T10:42:00;3.97;;;2.65;;
68310;SDS011;55157;51.036;17.058;2022-10-16T10:44:34;10.13;;;5.40;;
68310;SDS011;55157;51.036;17.058;2022-10-16T10:47:04;2.90;;;2.30;;
68310;SDS011;55157;51.036;17.058;2022-10-16T10:49:37;5.00;;;3.55;;
68310;SDS011;55157;51.036;17.058;2022-10-16T10:52:09;9.75;;;2.17;;
68310;SDS011;55157;51.036;17.058;2022-10-16T10:54:36;3.38;;;1.77;;
68310;SDS011;55157;51.036;17.058;2022-10-16T10:57:03;2.72;;;1.80;;
68310;SDS011;55157;51.036;17.058;2022-10-16T10:59:37;7.03;;;1.90;;
68310;SDS011;55157;51.036;17.058;2022-10-16T11:02:10;3.45;;;1.52;;
68310;SDS011;55157;51.036;17.058;2022-10-16T11:04:52;4.18;;;1.70;;
68310;SDS011;55157;51.036;17.058;2022-10-16T11:07:20;4.70;;;1.67;;
68310;SDS011;55157;51.036;17.058;2022-10-16T11:09:47;8.20;;;1.75;;
68310;SDS011;55157;51.036;17.058;2022-10-16T11:12:14;3.75;;;1.45;;
68310;SDS011;55157;51.036;17.058;2022-10-16T11:14:43;3.75;;;1.45;;
68310;SDS011;55157;51.036;17.058;2022-10-16T11:17:11;3.55;;;1.65;;
68310;SDS011;55157;51.036;17.058;2022-10-16T11:19:39;5.40;;;2.00;;
68310;SDS011;55157;51.036;17.058;2022-10-16T11:22:09;2.40;;;1.63;;
68310;SDS011;55157;51.036;17.058;2022-10-16T11:24:40;3.05;;;2.17;;
68310;SDS011;55157;51.036;17.058;2022-10-16T11:27:07;3.63;;;2.35;;
68310;SDS011;55157;51.036;17.058;2022-10-16T11:29:33;3.55;;;2.30;;
68310;SDS011;55157;51.036;17.058;2022-10-16T11:32:01;2.35;;;2.05;;
68310;SDS011;55157;51.036;17.058;2022-10-16T11:34:31;3.28;;;2.22;;
68310;SDS011;55157;51.036;17.058;2022-10-16T11:37:02;3.30;;;2.40;;
68310;SDS011;55157;51.036;17.058;2022-10-16T11:39:32;5.13;;;3.22;;
68310;SDS011;55157;51.036;17.058;2022-10-16T11:41:59;7.90;;;2.95;;
68310;SDS011;55157;51.036;17.058;2022-10-16T11:44:34;7.47;;;4.10;;
68310;SDS011;55157;51.036;17.058;2022-10-16T11:47:02;4.95;;;4.35;;
68310;SDS011;55157;51.036;17.058;2022-10-16T11:49:31;6.57;;;4.50;;
68310;SDS011;55157;51.036;17.058;2022-10-16T11:51:59;4.50;;;3.55;;
68310;SDS011;55157;51.036;17.058;2022-10-16T11:54:28;9.82;;;3.95;;
68310;SDS011;55157;51.036;17.058;2022-10-16T11:56:59;4.93;;;3.47;;
68310;SDS011;55157;51.036;17.058;2022-10-16T11:59:27;9.00;;;3.70;;
68310;SDS011;55157;51.036;17.058;2022-10-16T12:01:57;11.40;;;3.88;;
68310;SDS011;55157;51.036;17.058;2022-10-16T12:04:26;6.55;;;4.22;;
68310;SDS011;55157;51.036;17.058;2022-10-16T12:06:56;5.40;;;4.32;;
68310;SDS011;55157;51.036;17.058;2022-10-16T12:09:24;7.53;;;4.45;;
68310;SDS011;55157;51.036;17.058;2022-10-16T12:11:50;10.40;;;4.05;;
68310;SDS011;55157;51.036;17.058;2022-10-16T12:14:22;5.65;;;4.32;;
68310;SDS011;55157;51.036;17.058;2022-10-16T12:16:58;5.22;;;3.85;;
68310;SDS011;55157;51.036;17.058;2022-10-16T12:19:24;9.75;;;5.13;;
68310;SDS011;55157;51.036;17.058;2022-10-16T12:21:49;5.40;;;4.85;;
68310;SDS011;55157;51.036;17.058;2022-10-16T12:24:20;10.23;;;4.88;;
68310;SDS011;55157;51.036;17.058;2022-10-16T12:26:46;14.23;;;5.15;;
68310;SDS011;55157;51.036;17.058;2022-10-16T12:29:13;5.35;;;3.72;;
68310;SDS011;55157;51.036;17.058;2022-10-16T12:31:42;9.45;;;4.50;;
68310;SDS011;55157;51.036;17.058;2022-10-16T12:34:14;5.88;;;3.75;;
68310;SDS011;55157;51.036;17.058;2022-10-16T12:36:46;5.68;;;4.10;;
68310;SDS011;55157;51.036;17.058;2022-10-16T12:39:16;7.68;;;4.25;;
68310;SDS011;55157;51.036;17.058;2022-10-16T12:41:44;9.55;;;4.80;;
68310;SDS011;55157;51.036;17.058;2022-10-16T12:44:20;6.03;;;4.63;;
68310;SDS011;55157;51.036;17.058;2022-10-16T12:46:47;10.23;;;5.50;;
68310;SDS011;55157;51.036;17.058;2022-10-16T12:49:21;8.18;;;6.05;;
68310;SDS011;55157;51.036;17.058;2022-10-16T12:51:47;8.50;;;6.90;;
68310;SDS011;55157;51.036;17.058;2022-10-16T12:54:13;7.90;;;5.82;;
68310;SDS011;55157;51.036;17.058;2022-10-16T12:56:41;9.18;;;7.05;;
68310;SDS011;55157;51.036;17.058;2022-10-16T12:59:10;9.95;;;7.97;;
68310;SDS011;55157;51.036;17.058;2022-10-16T13:01:41;11.45;;;6.90;;
68310;SDS011;55157;51.036;17.058;2022-10-16T13:09:22;9.73;;;6.55;;
68310;SDS011;55157;51.036;17.058;2022-10-16T13:11:57;15.55;;;7.25;;
68310;SDS011;55157;51.036;17.058;2022-10-16T13:14:28;8.38;;;6.38;;
68310;SDS011;55157;51.036;17.058;2022-10-16T13:17:00;7.15;;;6.45;;
68310;SDS011;55157;51.036;17.058;2022-10-16T13:19:30;11.50;;;6.95;;
68310;SDS011;55157;51.036;17.058;2022-10-16T13:22:02;11.98;;;7.63;;
68310;SDS011;55157;51.036;17.058;2022-10-16T13:24:40;10.82;;;8.00;;
68310;SDS011;55157;51.036;17.058;2022-10-16T13:27:07;9.52;;;7.10;;
68310;SDS011;55157;51.036;17.058;2022-10-16T13:29:34;13.02;;;6.57;;
68310;SDS011;55157;51.036;17.058;2022-10-16T13:32:00;10.95;;;7.00;;
68310;SDS011;55157;51.036;17.058;2022-10-16T13:34:25;8.60;;;7.30;;
68310;SDS011;55157;51.036;17.058;2022-10-16T13:36:52;26.05;;;19.08;;
68310;SDS011;55157;51.036;17.058;2022-10-16T13:39:21;15.00;;;9.45;;
68310;SDS011;55157;51.036;17.058;2022-10-16T13:41:59;216.82;;;26.30;;
68310;SDS011;55157;51.036;17.058;2022-10-16T13:44:26;216.25;;;41.75;;
68310;SDS011;55157;51.036;17.058;2022-10-16T13:46:58;31.00;;;9.52;;
68310;SDS011;55157;51.036;17.058;2022-10-16T13:49:24;21.95;;;7.45;;
68310;SDS011;55157;51.036;17.058;2022-10-16T13:51:55;9.80;;;6.75;;
68310;SDS011;55157;51.036;17.058;2022-10-16T13:54:21;10.95;;;6.10;;
68310;SDS011;55157;51.036;17.058;2022-10-16T13:56:46;10.70;;;6.43;;
68310;SDS011;55157;51.036;17.058;2022-10-16T13:59:23;8.52;;;6.07;;
68310;SDS011;55157;51.036;17.058;2022-10-16T14:01:49;10.13;;;5.93;;
68310;SDS011;55157;51.036;17.058;2022-10-16T14:04:16;11.23;;;6.68;;
68310;SDS011;55157;51.036;17.058;2022-10-16T14:06:41;6.80;;;5.97;;
68310;SDS011;55157;51.036;17.058;2022-10-16T14:09:08;14.00;;;6.35;;
68310;SDS011;55157;51.036;17.058;2022-10-16T14:11:34;12.23;;;6.35;;
68310;SDS011;55157;51.036;17.058;2022-10-16T14:14:01;11.75;;;5.95;;
68310;SDS011;55157;51.036;17.058;2022-10-16T14:16:29;7.93;;;5.50;;
68310;SDS011;55157;51.036;17.058;2022-10-16T14:18:56;10.23;;;5.80;;
68310;SDS011;55157;51.036;17.058;2022-10-16T14:21:22;6.80;;;4.68;;
68310;SDS011;55157;51.036;17.058;2022-10-16T14:23:47;6.00;;;4.40;;
68310;SDS011;55157;51.036;17.058;2022-10-16T14:26:13;9.25;;;6.07;;
68310;SDS011;55157;51.036;17.058;2022-10-16T14:28:39;7.53;;;5.53;;
68310;SDS011;55157;51.036;17.058;2022-10-16T14:31:17;6.35;;;5.35;;
68310;SDS011;55157;51.036;17.058;2022-10-16T14:33:48;7.15;;;5.38;;
68310;SDS011;55157;51.036;17.058;2022-10-16T14:36:13;12.55;;;7.75;;